createdAt,value
2023-05-10T00:00:39.126Z,100949.20
2023-05-10T00:03:13.191Z,100944.00
2023-05-10T00:05:42.134Z,100944.40
2023-05-10T00:08:11.023Z,100941.60
2023-05-10T00:10:39.733Z,100938.60
2023-05-10T00:13:08.525Z,100940.80
2023-05-10T00:15:37.188Z,100930.80
2023-05-10T00:18:06.243Z,100934.80
2023-05-10T00:20:34.862Z,100938.00
2023-05-10T00:23:03.455Z,100929.60
2023-05-10T00:25:32.137Z,100936.40
2023-05-10T00:28:02.674Z,100931.80
2023-05-10T00:30:31.571Z,100930.40
2023-05-10T00:33:00.304Z,100928.00
2023-05-10T00:35:29.147Z,100931.40
2023-05-10T00:37:57.719Z,100929.80
2023-05-10T00:40:27.152Z,100928.60
2023-05-10T00:42:59.839Z,100929.00
2023-05-10T00:45:28.499Z,100926.00
2023-05-10T00:47:57.425Z,100927.80
2023-05-10T00:50:26.073Z,100927.80
2023-05-10T00:52:54.660Z,100930.20
2023-05-10T00:55:23.553Z,100927.40
2023-05-10T00:57:52.238Z,100924.60
2023-05-10T01:00:21.563Z,100926.80
2023-05-10T01:02:51.166Z,100921.20
2023-05-10T01:05:20.808Z,100918.80
2023-05-10T01:07:49.573Z,100913.40
2023-05-10T01:10:18.772Z,100913.40
2023-05-10T01:12:49.460Z,100911.00
2023-05-10T01:15:19.303Z,100904.00
2023-05-10T01:17:49.660Z,100912.00
2023-05-10T01:20:18.527Z,100908.00
2023-05-10T01:22:59.496Z,100907.60
2023-05-10T01:26:22.549Z,100906.80
2023-05-10T01:29:25.845Z,100902.80
2023-05-10T01:32:26.907Z,100903.40
2023-05-10T01:35:25.788Z,100901.20
2023-05-10T01:38:23.881Z,100898.00
2023-05-10T01:41:20.302Z,100895.60
2023-05-10T01:44:28.612Z,100898.60
2023-05-10T01:47:07.477Z,100897.00
2023-05-10T01:50:04.208Z,100893.80
2023-05-10T01:52:41.442Z,100885.60
2023-05-10T01:55:15.615Z,100883.80
2023-05-10T01:57:47.622Z,100890.20
2023-05-10T02:00:17.627Z,100884.00
2023-05-10T02:02:49.870Z,100883.20
2023-05-10T02:05:20.371Z,100887.20
2023-05-10T02:07:50.592Z,100884.60
2023-05-10T02:10:20.713Z,100885.60
2023-05-10T02:12:51.343Z,100879.20
2023-05-10T02:15:26.053Z,100878.40
2023-05-10T02:17:57.489Z,100882.80
2023-05-10T02:20:27.435Z,100875.60
2023-05-10T02:22:58.744Z,100869.80
2023-05-10T02:25:29.627Z,100872.00
2023-05-10T02:28:01.284Z,100879.20
2023-05-10T02:30:32.611Z,100879.40
2023-05-10T02:33:04.258Z,100870.20
2023-05-10T02:35:34.774Z,100870.60
2023-05-10T02:38:05.515Z,100866.00
2023-05-10T02:40:35.469Z,100868.80
2023-05-10T02:43:06.717Z,100866.00
2023-05-10T02:45:40.115Z,100868.80
2023-05-10T02:48:09.026Z,100866.40
2023-05-10T02:50:40.097Z,100861.20
2023-05-10T02:53:16.940Z,100861.80
2023-05-10T02:55:48.895Z,100864.40
2023-05-10T02:58:19.637Z,100861.60
2023-05-10T03:00:48.312Z,100865.20
2023-05-10T03:03:16.901Z,100867.00
2023-05-10T03:05:45.996Z,100861.60
2023-05-10T03:08:14.679Z,100857.00
2023-05-10T03:11:01.186Z,100860.00
2023-05-10T03:14:32.238Z,100851.80
2023-05-10T03:17:19.464Z,100841.60
2023-05-10T03:19:57.773Z,100847.00
2023-05-10T03:22:33.484Z,100843.60
2023-05-10T03:25:07.079Z,100843.60
2023-05-10T03:27:40.608Z,100843.60
2023-05-10T03:30:13.117Z,100842.60
2023-05-10T03:32:41.708Z,100843.80
2023-05-10T03:35:14.286Z,100836.60
2023-05-10T03:37:43.365Z,100837.00
2023-05-10T03:40:12.893Z,100842.60
2023-05-10T03:42:43.411Z,100841.80
2023-05-10T03:45:12.292Z,100842.80
2023-05-10T03:47:40.885Z,100847.20
2023-05-10T03:50:11.637Z,100837.40
2023-05-10T03:52:42.859Z,100835.40
2023-05-10T03:55:11.953Z,100836.20
2023-05-10T03:57:40.736Z,100833.60
2023-05-10T04:00:11.128Z,100830.80
2023-05-10T04:02:46.466Z,100829.60
2023-05-10T04:05:20.320Z,100829.20
2023-05-10T04:07:50.645Z,100829.60
2023-05-10T04:10:19.455Z,100825.40
2023-05-10T04:12:48.436Z,100820.80
2023-05-10T04:15:17.160Z,100816.00
2023-05-10T04:17:46.024Z,100809.20
2023-05-10T04:20:16.025Z,100816.80
2023-05-10T04:22:44.711Z,100812.20
2023-05-10T04:25:13.503Z,100811.00
2023-05-10T04:27:42.082Z,100814.60
2023-05-10T04:30:12.017Z,100811.40
2023-05-10T04:32:40.727Z,100807.40
2023-05-10T04:35:11.972Z,100801.80
2023-05-10T04:37:40.631Z,100801.20
2023-05-10T04:40:10.333Z,100804.20
2023-05-10T04:42:42.416Z,100803.40
2023-05-10T04:45:12.102Z,100799.40
2023-05-10T04:47:41.240Z,100795.20
2023-05-10T04:50:11.010Z,100791.60
2023-05-10T04:52:39.492Z,100792.80
2023-05-10T04:55:10.764Z,100788.00
2023-05-10T04:57:39.236Z,100787.40
2023-05-10T05:00:09.611Z,100785.40
2023-05-10T05:02:38.401Z,100781.00
2023-05-10T05:05:07.947Z,100781.20
2023-05-10T05:07:36.520Z,100778.40
2023-05-10T05:10:08.316Z,100774.60
2023-05-10T05:12:36.976Z,100775.20
2023-05-10T05:15:08.482Z,100773.60
2023-05-10T05:17:38.518Z,100767.60
2023-05-10T05:20:08.422Z,100771.80
2023-05-10T05:22:40.140Z,100771.40
2023-05-10T05:25:09.817Z,100765.00
2023-05-10T05:27:38.737Z,100760.80
2023-05-10T05:30:08.567Z,100756.80
2023-05-10T05:32:37.074Z,100758.00
2023-05-10T05:35:07.058Z,100751.20
2023-05-10T05:37:36.492Z,100747.00
2023-05-10T05:40:06.465Z,100752.80
2023-05-10T05:42:35.153Z,100750.20
2023-05-10T05:45:04.480Z,100742.20
2023-05-10T05:47:33.049Z,100739.80
2023-05-10T05:50:01.761Z,100737.40
2023-05-10T05:52:31.621Z,100734.40
2023-05-10T05:55:00.337Z,100734.80
2023-05-10T05:57:29.632Z,100735.20
2023-05-10T05:59:58.617Z,100731.80
2023-05-10T06:02:27.773Z,100725.00
2023-05-10T06:04:57.021Z,100725.60
2023-05-10T06:07:25.597Z,100730.60
2023-05-10T06:09:54.189Z,100734.00
2023-05-10T06:12:22.870Z,100729.20
2023-05-10T06:14:51.763Z,100723.60
2023-05-10T06:17:26.435Z,100722.80
2023-05-10T06:19:57.951Z,100729.00
2023-05-10T06:22:27.319Z,100724.60
2023-05-10T06:24:56.558Z,100719.60
2023-05-10T06:27:25.751Z,100716.00
2023-05-10T06:29:59.295Z,100713.60
2023-05-10T06:32:34.612Z,100713.80
2023-05-10T06:35:03.376Z,100717.40
2023-05-10T06:37:32.192Z,100712.60
2023-05-10T06:40:01.832Z,100717.60
2023-05-10T06:42:30.974Z,100714.80
2023-05-10T06:44:59.861Z,100709.00
2023-05-10T06:47:28.903Z,100708.40
2023-05-10T06:49:57.545Z,100709.20
2023-05-10T06:52:26.263Z,100710.40
2023-05-10T06:54:55.120Z,100705.80
2023-05-10T07:00:00.734Z,100713.20
2023-05-10T07:02:29.696Z,100712.60
2023-05-10T07:05:01.696Z,100705.80
2023-05-10T07:07:31.510Z,100706.20
2023-05-10T07:10:00.348Z,100699.20
2023-05-10T07:12:29.080Z,100699.00
2023-05-10T07:14:57.722Z,100703.40
2023-05-10T07:17:26.672Z,100702.00
2023-05-10T07:19:55.620Z,100701.40
2023-05-10T07:22:24.192Z,100700.60
2023-05-10T07:24:52.878Z,100698.20
2023-05-10T07:27:21.605Z,100697.80
2023-05-10T07:29:50.252Z,100699.60
2023-05-10T07:32:19.186Z,100701.40
2023-05-10T07:34:47.834Z,100702.80
2023-05-10T07:37:16.516Z,100702.00
2023-05-10T07:39:45.108Z,100699.40
2023-05-10T07:42:14.001Z,100701.40
2023-05-10T07:44:43.094Z,100700.60
2023-05-10T07:47:12.293Z,100704.60
2023-05-10T07:49:41.281Z,100698.00
2023-05-10T07:52:09.765Z,100696.20
2023-05-10T07:54:39.280Z,100695.60
2023-05-10T07:57:07.958Z,100691.60
2023-05-10T07:59:37.062Z,100693.00
2023-05-10T08:02:05.757Z,100690.60
2023-05-10T08:04:34.568Z,100692.20
2023-05-10T08:07:03.320Z,100691.80
2023-05-10T08:09:32.003Z,100691.40
2023-05-10T08:12:01.316Z,100683.20
2023-05-10T08:14:30.914Z,100689.20
2023-05-10T08:16:59.496Z,100681.80
2023-05-10T08:19:28.082Z,100685.60
2023-05-10T08:21:56.992Z,100678.00
2023-05-10T08:24:25.779Z,100683.40
2023-05-10T08:26:54.450Z,100684.40
2023-05-10T08:29:23.036Z,100681.20
2023-05-10T08:31:51.711Z,100677.00
2023-05-10T08:34:20.798Z,100685.60
2023-05-10T08:36:49.813Z,100683.20
2023-05-10T08:39:29.397Z,100679.00
2023-05-10T08:42:02.943Z,100687.00
2023-05-10T08:44:35.422Z,100691.00
2023-05-10T08:47:08.829Z,100687.60
2023-05-10T08:49:38.846Z,100689.20
2023-05-10T08:52:09.607Z,100693.00
2023-05-10T08:54:38.868Z,100688.60
2023-05-10T08:57:07.470Z,100695.20
2023-05-10T08:59:36.359Z,100689.00
2023-05-10T09:02:06.581Z,100682.80
2023-05-10T09:04:35.273Z,100684.80
2023-05-10T09:07:04.058Z,100686.00
2023-05-10T09:09:32.952Z,100696.80
2023-05-10T09:12:01.664Z,100689.60
2023-05-10T09:14:32.710Z,100687.80
2023-05-10T09:17:06.905Z,100692.60
2023-05-10T09:19:38.153Z,100691.60
2023-05-10T09:22:09.555Z,100688.40
2023-05-10T09:24:44.083Z,100700.40
2023-05-10T09:27:14.464Z,100698.80
2023-05-10T09:29:46.952Z,100697.80
2023-05-10T09:32:18.146Z,100699.20
2023-05-10T09:34:52.728Z,100701.40
2023-05-10T09:37:31.615Z,100703.00
2023-05-10T09:40:02.197Z,100692.80
2023-05-10T09:42:31.857Z,100698.00
2023-05-10T09:45:06.249Z,100705.20
2023-05-10T09:47:36.632Z,100701.60
2023-05-10T09:50:06.868Z,100701.80
2023-05-10T09:52:48.520Z,100699.40
2023-05-10T09:55:19.069Z,100701.20
2023-05-10T09:57:49.712Z,100693.00
2023-05-10T10:00:22.156Z,100703.80
2023-05-10T10:03:00.552Z,100697.80
2023-05-10T10:05:37.070Z,100698.60
2023-05-10T10:08:07.282Z,100701.20
2023-05-10T10:10:36.481Z,100699.20
2023-05-10T10:13:06.084Z,100694.60
2023-05-10T10:15:36.211Z,100697.20
2023-05-10T10:18:06.748Z,100695.00
2023-05-10T10:20:35.308Z,100695.20
2023-05-10T10:23:04.303Z,100692.20
2023-05-10T10:25:33.398Z,100691.00
2023-05-10T10:28:42.023Z,100683.40
2023-05-10T10:31:43.280Z,100683.80
2023-05-10T10:34:26.501Z,100682.40
2023-05-10T10:36:57.747Z,100673.80
2023-05-10T10:39:26.649Z,100669.80
2023-05-10T10:41:59.889Z,100682.40
2023-05-10T10:44:39.136Z,100679.60
2023-05-10T10:47:15.241Z,100668.20
2023-05-10T10:49:53.018Z,100679.40
2023-05-10T10:52:31.127Z,100683.60
2023-05-10T10:55:12.942Z,100672.60
2023-05-10T10:57:41.618Z,100683.40
2023-05-10T11:00:25.687Z,100677.40
2023-05-10T11:02:57.812Z,100667.60
2023-05-10T11:05:30.090Z,100661.40
2023-05-10T11:08:01.181Z,100676.20
2023-05-10T11:10:30.338Z,100678.80
2023-05-10T11:13:07.793Z,100677.20
2023-05-10T11:15:41.486Z,100677.40
2023-05-10T11:18:22.726Z,100679.80
2023-05-10T11:21:09.536Z,100667.40
2023-05-10T11:23:40.782Z,100670.80
2023-05-10T11:26:12.671Z,100669.00
2023-05-10T11:28:50.210Z,100664.40
2023-05-10T11:31:20.394Z,100664.00
2023-05-10T11:33:53.139Z,100668.00
2023-05-10T11:36:26.637Z,100674.60
2023-05-10T11:38:57.287Z,100665.60
2023-05-10T11:41:27.964Z,100664.60
2023-05-10T11:43:57.818Z,100673.00
2023-05-10T11:46:29.740Z,100661.60
2023-05-10T11:49:05.513Z,100667.80
2023-05-10T11:51:37.382Z,100670.40
2023-05-10T11:54:12.130Z,100664.00
2023-05-10T11:56:42.331Z,100674.80
2023-05-10T11:59:10.932Z,100681.00
2023-05-10T12:01:39.959Z,100675.20
2023-05-10T12:04:08.989Z,100671.80
2023-05-10T12:06:42.150Z,100669.80
2023-05-10T12:09:10.901Z,100669.20
2023-05-10T12:11:43.959Z,100669.60
2023-05-10T12:14:13.497Z,100670.80
2023-05-10T12:16:44.272Z,100670.80
2023-05-10T12:19:12.976Z,100673.60
2023-05-10T12:21:42.746Z,100670.60
2023-05-10T12:24:11.955Z,100670.60
2023-05-10T12:29:26.916Z,100663.00
2023-05-10T12:31:58.877Z,100668.20
2023-05-10T12:34:34.966Z,100670.60
2023-05-10T12:37:04.729Z,100673.80
2023-05-10T12:39:45.931Z,100674.60
2023-05-10T12:42:14.527Z,100667.60
2023-05-10T12:44:43.315Z,100660.00
2023-05-10T12:47:12.105Z,100664.40
2023-05-10T12:49:40.790Z,100658.40
2023-05-10T12:52:09.379Z,100663.60
2023-05-10T12:54:38.370Z,100660.20
2023-05-10T12:57:07.280Z,100664.40
2023-05-10T12:59:37.451Z,100661.20
2023-05-10T13:02:08.024Z,100670.80
2023-05-10T13:04:40.650Z,100677.60
2023-05-10T13:07:09.683Z,100659.00
2023-05-10T13:09:38.265Z,100676.40
2023-05-10T13:12:08.804Z,100686.00
2023-05-10T13:14:38.948Z,100670.00
2023-05-10T13:17:08.229Z,100669.00
2023-05-10T13:19:37.109Z,100673.40
2023-05-10T13:22:05.806Z,100672.60
2023-05-10T13:24:35.019Z,100666.60
2023-05-10T13:27:03.791Z,100666.20
2023-05-10T13:29:32.473Z,100681.20
2023-05-10T13:32:01.361Z,100666.00
2023-05-10T13:34:30.151Z,100665.20
2023-05-10T13:36:59.150Z,100658.00
2023-05-10T13:39:27.742Z,100663.20
2023-05-10T13:41:56.529Z,100657.20
2023-05-10T13:44:25.105Z,100659.20
2023-05-10T13:46:53.847Z,100659.40
2023-05-10T13:49:23.309Z,100654.40
2023-05-10T13:51:52.425Z,100658.00
2023-05-10T13:54:21.287Z,100653.80
2023-05-10T13:56:49.990Z,100652.00
2023-05-10T13:59:18.466Z,100650.60
2023-05-10T14:01:47.080Z,100651.80
2023-05-10T14:04:15.725Z,100654.40
2023-05-10T14:06:44.415Z,100655.00
2023-05-10T14:09:13.103Z,100645.60
2023-05-10T14:11:44.453Z,100649.60
2023-05-10T14:14:14.633Z,100652.60
2023-05-10T14:16:45.799Z,100652.20
2023-05-10T14:19:14.312Z,100656.00
2023-05-10T14:21:42.992Z,100651.00
2023-05-10T14:24:11.575Z,100640.00
2023-05-10T14:26:40.274Z,100645.60
2023-05-10T14:29:11.470Z,100639.60
2023-05-10T14:31:41.963Z,100639.00
2023-05-10T14:34:11.030Z,100641.80
2023-05-10T14:36:40.365Z,100643.80
2023-05-10T14:39:11.193Z,100635.60
2023-05-10T14:41:42.835Z,100640.20
2023-05-10T14:44:12.019Z,100636.20
2023-05-10T14:46:40.912Z,100643.60
2023-05-10T14:49:09.610Z,100638.60
2023-05-10T14:51:38.189Z,100638.20
2023-05-10T14:54:07.073Z,100639.80
2023-05-10T14:56:35.677Z,100635.40
2023-05-10T14:59:05.207Z,100637.40
2023-05-10T15:01:36.703Z,100645.60
2023-05-10T15:04:06.145Z,100636.00
2023-05-10T15:06:36.649Z,100642.60
2023-05-10T15:09:05.352Z,100638.40
2023-05-10T15:11:34.446Z,100636.20
2023-05-10T15:14:03.225Z,100637.80
2023-05-10T15:16:34.221Z,100638.20
2023-05-10T15:19:04.655Z,100643.40
2023-05-10T15:21:39.945Z,100644.40
2023-05-10T15:24:09.665Z,100644.40
2023-05-10T15:26:38.227Z,100646.20
2023-05-10T15:29:07.223Z,100647.60
2023-05-10T15:31:40.817Z,100647.80
2023-05-10T15:34:09.517Z,100645.60
2023-05-10T15:36:38.097Z,100647.80
2023-05-10T15:39:06.983Z,100645.00
2023-05-10T15:41:35.484Z,100648.20
2023-05-10T15:44:04.697Z,100650.00
2023-05-10T15:46:33.511Z,100651.40
2023-05-10T15:49:02.759Z,100646.60
2023-05-10T15:51:31.344Z,100642.80
2023-05-10T15:54:07.190Z,100646.40
2023-05-10T15:56:36.744Z,100641.20
2023-05-10T15:59:06.418Z,100640.00
2023-05-10T16:01:35.242Z,100643.80
2023-05-10T16:04:04.377Z,100638.40
2023-05-10T16:06:33.302Z,100642.80
2023-05-10T16:09:02.205Z,100644.80
2023-05-10T16:11:30.985Z,100644.00
2023-05-10T16:14:00.501Z,100647.40
2023-05-10T16:16:29.256Z,100653.40
2023-05-10T16:18:59.031Z,100649.20
2023-05-10T16:21:29.268Z,100646.00
2023-05-10T16:23:58.314Z,100645.60
2023-05-10T16:26:26.992Z,100647.40
2023-05-10T16:28:55.887Z,100649.00
2023-05-10T16:31:25.067Z,100653.80
2023-05-10T16:33:54.078Z,100654.40
2023-05-10T16:36:22.669Z,100656.20
2023-05-10T16:38:51.756Z,100655.80
2023-05-10T16:41:21.686Z,100654.00
2023-05-10T16:43:50.722Z,100658.80
2023-05-10T16:46:20.493Z,100667.80
2023-05-10T16:48:57.495Z,100669.20
2023-05-10T16:51:28.022Z,100664.80
2023-05-10T16:53:57.194Z,100667.60
2023-05-10T16:56:27.106Z,100673.40
2023-05-10T16:58:55.705Z,100677.40
2023-05-10T17:01:26.493Z,100677.00
2023-05-10T17:03:59.108Z,100682.00
2023-05-10T17:06:29.848Z,100685.00
2023-05-10T17:08:59.142Z,100685.00
2023-05-10T17:11:30.074Z,100685.40
2023-05-10T17:14:01.559Z,100691.40
2023-05-10T17:16:30.613Z,100692.00
2023-05-10T17:18:59.329Z,100696.40
2023-05-10T17:21:28.105Z,100692.80
2023-05-10T17:23:56.800Z,100697.60
2023-05-10T17:26:27.761Z,100699.20
2023-05-10T17:28:56.420Z,100701.40
2023-05-10T17:31:25.249Z,100697.60
2023-05-10T17:33:54.821Z,100710.00
2023-05-10T17:36:23.523Z,100710.80
2023-05-10T17:38:55.161Z,100717.40
2023-05-10T17:41:24.715Z,100718.00
2023-05-10T17:43:54.364Z,100718.00
2023-05-10T17:46:23.718Z,100724.00
2023-05-10T17:48:52.695Z,100724.40
2023-05-10T17:51:21.890Z,100724.00
2023-05-10T17:53:50.476Z,100729.80
2023-05-10T17:56:19.355Z,100733.20
2023-05-10T17:58:49.286Z,100736.20
2023-05-10T18:01:18.131Z,100735.00
2023-05-10T18:03:52.016Z,100740.00
2023-05-10T18:06:20.954Z,100742.80
2023-05-10T18:08:50.165Z,100746.20
2023-05-10T18:11:18.734Z,100747.40
2023-05-10T18:13:47.425Z,100747.40
2023-05-10T18:16:16.574Z,100750.80
2023-05-10T18:18:45.352Z,100756.80
2023-05-10T18:21:14.236Z,100752.00
2023-05-10T18:23:42.886Z,100761.20
2023-05-10T18:26:11.986Z,100760.20
2023-05-10T18:28:40.604Z,100767.40
2023-05-10T18:31:09.579Z,100775.40
2023-05-10T18:33:38.366Z,100774.40
2023-05-10T18:36:07.245Z,100777.00
2023-05-10T18:38:35.840Z,100778.40
2023-05-10T18:41:04.414Z,100780.60
2023-05-10T18:43:36.078Z,100786.60
2023-05-10T18:46:04.809Z,100794.60
2023-05-10T18:48:33.646Z,100794.40
2023-05-10T18:51:02.235Z,100794.40
2023-05-10T18:53:32.865Z,100799.20
2023-05-10T18:56:02.066Z,100802.60
2023-05-10T18:58:31.604Z,100802.80
2023-05-10T19:01:00.168Z,100803.20
2023-05-10T19:03:30.479Z,100813.20
2023-05-10T19:05:59.372Z,100813.40
2023-05-10T19:08:27.955Z,100815.80
2023-05-10T19:10:56.763Z,100817.00
2023-05-10T19:13:25.382Z,100823.40
2023-05-10T19:16:14.309Z,100822.80
2023-05-10T19:18:46.078Z,100828.80
2023-05-10T19:21:16.115Z,100830.60
2023-05-10T19:23:47.018Z,100834.40
2023-05-10T19:26:15.724Z,100838.00
2023-05-10T19:28:44.801Z,100844.80
2023-05-10T19:31:14.029Z,100843.00
2023-05-10T19:33:42.750Z,100842.80
2023-05-10T19:36:11.479Z,100840.80
2023-05-10T19:38:40.458Z,100845.80
2023-05-10T19:41:09.148Z,100850.00
2023-05-10T19:43:38.747Z,100858.80
2023-05-10T19:46:09.268Z,100852.20
2023-05-10T19:48:38.196Z,100849.80
2023-05-10T19:51:09.942Z,100854.80
2023-05-10T19:53:41.693Z,100860.60
2023-05-10T19:56:11.103Z,100858.40
2023-05-10T20:01:08.803Z,100860.60
2023-05-10T20:03:37.382Z,100867.60
2023-05-10T20:06:06.163Z,100864.80
2023-05-10T20:08:34.842Z,100867.80
2023-05-10T20:11:04.168Z,100867.00
2023-05-10T20:13:33.789Z,100866.60
2023-05-10T20:16:02.866Z,100867.20
2023-05-10T20:18:31.563Z,100865.20
2023-05-10T20:21:01.567Z,100870.20
2023-05-10T20:23:30.053Z,100871.80
2023-05-10T20:25:59.128Z,100869.40
2023-05-10T20:28:28.633Z,100867.80
2023-05-10T20:30:58.350Z,100869.00
2023-05-10T20:33:26.947Z,100870.60
2023-05-10T20:35:55.522Z,100873.60
2023-05-10T20:38:24.202Z,100871.40
2023-05-10T20:40:52.783Z,100873.60
2023-05-10T20:43:21.674Z,100876.80
2023-05-10T20:45:50.402Z,100880.00
2023-05-10T20:48:19.969Z,100883.60
2023-05-10T20:50:48.565Z,100881.40
2023-05-10T20:53:18.775Z,100884.80
2023-05-10T20:55:47.260Z,100888.80
2023-05-10T20:58:15.958Z,100888.60
2023-05-10T21:00:44.635Z,100890.20
2023-05-10T21:03:15.079Z,100887.40
2023-05-10T21:05:43.754Z,100888.40
2023-05-10T21:08:12.331Z,100890.80
2023-05-10T21:10:41.134Z,100893.80
2023-05-10T21:13:09.808Z,100895.20
2023-05-10T21:15:38.395Z,100897.40
2023-05-10T21:18:07.130Z,100899.00
2023-05-10T21:20:35.992Z,100896.40
2023-05-10T21:23:04.658Z,100897.60
2023-05-10T21:25:33.246Z,100900.80
2023-05-10T21:28:01.840Z,100905.40
2023-05-10T21:30:30.524Z,100902.20
2023-05-10T21:33:00.178Z,100906.80
2023-05-10T21:35:30.658Z,100905.60
2023-05-10T21:37:59.247Z,100906.40
2023-05-10T21:40:29.250Z,100909.20
2023-05-10T21:42:58.152Z,100910.00
2023-05-10T21:45:26.980Z,100908.40
2023-05-10T21:47:55.567Z,100907.80
2023-05-10T21:50:24.625Z,100911.80
2023-05-10T21:52:53.493Z,100911.00
2023-05-10T21:55:22.712Z,100908.40
2023-05-10T21:57:51.403Z,100908.40
2023-05-10T22:00:20.300Z,100914.80
2023-05-10T22:02:49.075Z,100917.60
2023-05-10T22:05:17.971Z,100916.20
2023-05-10T22:07:47.064Z,100916.40
2023-05-10T22:10:15.837Z,100917.80
2023-05-10T22:12:44.643Z,100923.60
2023-05-10T22:15:13.545Z,100922.60
2023-05-10T22:17:42.089Z,100924.40
2023-05-10T22:20:11.327Z,100927.80
2023-05-10T22:22:39.902Z,100922.80
2023-05-10T22:25:09.211Z,100924.20
2023-05-10T22:27:37.901Z,100932.00
2023-05-10T22:30:07.830Z,100928.20
2023-05-10T22:32:36.425Z,100931.40
2023-05-10T22:35:05.851Z,100938.00
2023-05-10T22:37:34.383Z,100933.80
2023-05-10T22:40:02.964Z,100938.20
2023-05-10T22:42:31.559Z,100938.40
2023-05-10T22:45:00.260Z,100936.20
2023-05-10T22:47:29.066Z,100935.40
2023-05-10T22:49:58.536Z,100939.40
2023-05-10T22:52:27.112Z,100937.00
2023-05-10T22:54:56.008Z,100935.60
2023-05-10T22:57:24.896Z,100942.60
2023-05-10T22:59:53.590Z,100948.00
2023-05-10T23:02:22.185Z,100947.40
2023-05-10T23:04:51.010Z,100950.00
2023-05-10T23:07:19.653Z,100956.20
2023-05-10T23:09:49.149Z,100955.60
2023-05-10T23:12:17.636Z,100957.40
2023-05-10T23:14:49.525Z,100960.20
2023-05-10T23:17:18.089Z,100958.80
2023-05-10T23:19:46.869Z,100959.00
2023-05-10T23:22:15.557Z,100962.60
2023-05-10T23:24:44.241Z,100964.00
2023-05-10T23:27:14.749Z,100964.40
2023-05-10T23:29:43.259Z,100963.60
2023-05-10T23:32:12.011Z,100963.20
2023-05-10T23:34:41.041Z,100964.20
2023-05-10T23:37:09.616Z,100962.20
2023-05-10T23:39:38.525Z,100959.40
2023-05-10T23:42:07.722Z,100965.20
2023-05-10T23:44:36.232Z,100959.80
2023-05-10T23:47:05.096Z,100960.00
2023-05-10T23:49:33.577Z,100960.80
2023-05-10T23:52:02.565Z,100964.40
2023-05-10T23:54:31.149Z,100963.20
2023-05-10T23:57:00.045Z,100960.60
2023-05-10T23:59:28.841Z,100957.40
